Time;durP1;ratioP1;P1;durP2;ratioP2;P2;SDS_P1;SDS_P2;PMS_P1;PMS_P2;Temp;Humidity;BMP_temperature;BMP_pressure;BME280_temperature;BME280_humidity;BME280_pressure;Samples;Min_cycle;Max_cycle;Signal;HPM_P1;HPM_P2
2023/04/04 00:00:12;;;;;;;3.30;1.00;;;0.20;94.00;;;;;;5069332;28;20661;-73
2023/04/04 00:02:38;;;;;;;2.23;1.00;;;0.20;94.00;;;;;;5069119;28;20212;-74
2023/04/04 00:05:05;;;;;;;1.70;0.97;;;0.20;94.40;;;;;;5070677;28;20765;-77
2023/04/04 00:07:31;;;;;;;1.67;0.80;;;0.10;94.40;;;;;;5069046;28;20185;-73
2023/04/04 00:09:56;;;;;;;1.63;0.97;;;0.10;94.50;;;;;;5086029;28;20509;-73
2023/04/04 00:12:23;;;;;;;2.50;1.20;;;0.00;94.50;;;;;;5068839;28;20247;-74
2023/04/04 00:14:49;;;;;;;4.63;1.47;;;0.00;94.60;;;;;;5070094;28;20177;-74
2023/04/04 00:17:14;;;;;;;2.30;0.93;;;0.00;94.60;;;;;;5068734;28;20494;-73
2023/04/04 00:19:40;;;;;;;2.17;1.00;;;0.00;94.60;;;;;;5069251;28;20438;-75
2023/04/04 00:22:06;;;;;;;2.27;0.83;;;0.00;94.60;;;;;;5085543;28;20259;-73
2023/04/04 00:24:32;;;;;;;2.17;1.03;;;0.00;94.50;;;;;;5069884;28;20185;-73
2023/04/04 00:26:58;;;;;;;3.80;1.37;;;-0.10;94.50;;;;;;5069687;28;20414;-72
2023/04/04 00:29:23;;;;;;;1.60;0.73;;;-0.10;94.60;;;;;;5069362;28;20562;-74
2023/04/04 00:31:49;;;;;;;3.10;1.27;;;-0.10;94.70;;;;;;5069411;28;20277;-75
2023/04/04 00:34:15;;;;;;;2.17;0.80;;;-0.10;94.60;;;;;;5069438;28;20188;-76
2023/04/04 00:36:40;;;;;;;6.47;1.33;;;-0.20;94.60;;;;;;5072499;28;20180;-74
2023/04/04 00:39:06;;;;;;;2.87;0.80;;;-0.20;94.70;;;;;;5070607;28;20534;-74
2023/04/04 00:41:32;;;;;;;2.63;1.23;;;-0.20;94.70;;;;;;5069663;28;20214;-74
2023/04/04 00:43:57;;;;;;;4.80;1.53;;;-0.20;94.70;;;;;;5070312;28;20241;-74
2023/04/04 00:46:25;;;;;;;4.37;1.77;;;-0.30;94.60;;;;;;5070048;28;20326;-75
2023/04/04 00:48:53;;;;;;;2.60;1.13;;;-0.20;94.60;;;;;;5070383;28;20676;-74
2023/04/04 00:51:18;;;;;;;4.03;1.27;;;-0.20;94.80;;;;;;5069964;28;20501;-74
2023/04/04 00:53:46;;;;;;;3.57;1.50;;;-0.20;94.70;;;;;;5068678;28;20827;-76
2023/04/04 00:56:12;;;;;;;3.13;1.10;;;-0.20;94.60;;;;;;5070094;28;20173;-76
2023/04/04 00:58:39;;;;;;;4.70;0.97;;;-0.20;94.60;;;;;;5072201;28;20416;-75
2023/04/04 01:01:05;;;;;;;1.27;0.70;;;-0.30;94.70;;;;;;5069727;28;20789;-74
2023/04/04 01:03:32;;;;;;;6.40;1.70;;;-0.30;94.80;;;;;;5068802;28;20950;-74
2023/04/04 01:05:58;;;;;;;4.93;1.80;;;-0.20;94.80;;;;;;5069732;28;20430;-74
2023/04/04 01:08:26;;;;;;;4.70;1.63;;;-0.30;94.90;;;;;;5071277;28;21081;-74
2023/04/04 01:10:52;;;;;;;4.40;1.53;;;-0.40;95.00;;;;;;5070589;28;20459;-75
2023/04/04 01:13:18;;;;;;;3.10;1.47;;;-0.40;95.20;;;;;;5068652;28;20954;-74
2023/04/04 01:15:44;;;;;;;5.83;1.47;;;-0.40;95.20;;;;;;5075401;28;20311;-74
2023/04/04 01:18:14;;;;;;;5.13;1.60;;;-0.40;95.40;;;;;;5074650;28;20652;-74
2023/04/04 01:20:53;;;;;;;1.70;1.00;;;-0.40;95.40;;;;;;5079713;28;20407;-74
2023/04/04 01:23:23;;;;;;;2.60;1.57;;;-0.40;95.60;;;;;;5086713;28;20472;-80
2023/04/04 01:25:49;;;;;;;5.50;1.27;;;-0.50;95.10;;;;;;5095790;28;20507;-79
2023/04/04 01:28:14;;;;;;;2.80;1.60;;;-0.60;95.20;;;;;;5116834;28;20485;-79
2023/04/04 01:30:41;;;;;;;4.50;1.03;;;-0.60;95.00;;;;;;5097555;28;20209;-80
2023/04/04 01:33:19;;;;;;;2.23;1.40;;;-0.60;95.20;;;;;;5097304;28;20189;-77
2023/04/04 01:35:49;;;;;;;2.73;1.57;;;-0.70;95.20;;;;;;5072365;28;20460;-74
2023/04/04 01:38:33;;;;;;;3.93;1.50;;;-0.70;95.30;;;;;;5070797;28;20495;-73
2023/04/04 01:41:05;;;;;;;1.70;0.97;;;-0.70;95.40;;;;;;5071766;28;20408;-74
2023/04/04 01:43:31;;;;;;;2.53;1.13;;;-0.70;95.20;;;;;;5070519;28;20793;-73
2023/04/04 01:45:58;;;;;;;2.00;1.53;;;-0.70;95.10;;;;;;5069142;28;20518;-74
2023/04/04 01:48:24;;;;;;;2.83;1.60;;;-0.70;95.00;;;;;;5070799;28;20218;-76
2023/04/04 01:50:51;;;;;;;3.87;1.20;;;-0.80;95.00;;;;;;5069683;28;20734;-73
2023/04/04 01:53:16;;;;;;;3.43;2.00;;;-0.90;94.90;;;;;;5068453;28;20193;-75
2023/04/04 01:55:42;;;;;;;3.67;1.33;;;-0.90;95.00;;;;;;5069143;28;20427;-76
2023/04/04 01:58:08;;;;;;;1.57;1.10;;;-0.90;94.90;;;;;;5069468;28;20819;-74
2023/04/04 02:00:34;;;;;;;5.60;1.37;;;-0.90;95.00;;;;;;5068902;28;20968;-74
2023/04/04 02:03:00;;;;;;;3.20;1.03;;;-0.90;94.90;;;;;;5073182;28;20552;-74
2023/04/04 02:05:26;;;;;;;1.63;1.00;;;-0.90;95.20;;;;;;5074945;28;20272;-74
2023/04/04 02:07:51;;;;;;;2.43;1.40;;;-0.90;94.90;;;;;;5069850;28;20514;-73
2023/04/04 02:10:17;;;;;;;4.37;1.53;;;-0.90;95.00;;;;;;5094582;28;20196;-79
2023/04/04 02:12:44;;;;;;;2.00;1.20;;;-1.00;94.90;;;;;;5098303;28;20207;-79
2023/04/04 02:15:10;;;;;;;2.33;0.90;;;-1.00;94.70;;;;;;5096311;28;20441;-78
2023/04/04 02:17:35;;;;;;;8.07;1.97;;;-1.00;94.90;;;;;;5114066;28;20499;-79
2023/04/04 02:20:01;;;;;;;3.10;1.30;;;-1.00;94.90;;;;;;5099158;28;20196;-75
2023/04/04 02:22:27;;;;;;;6.63;1.50;;;-1.00;94.90;;;;;;5095221;28;20207;-77
2023/04/04 02:24:56;;;;;;;3.93;1.60;;;-1.00;95.00;;;;;;5093323;28;20165;-73
2023/04/04 02:27:22;;;;;;;3.23;1.47;;;-1.00;94.90;;;;;;5067953;28;20267;-72
2023/04/04 02:29:48;;;;;;;2.57;1.20;;;-0.90;95.20;;;;;;5069851;28;20497;-74
2023/04/04 02:32:14;;;;;;;3.17;1.43;;;-1.10;95.10;;;;;;5068271;28;20491;-74
2023/04/04 02:34:39;;;;;;;3.50;1.30;;;-1.00;95.40;;;;;;5065596;28;20184;-74
2023/04/04 02:37:05;;;;;;;1.93;1.23;;;-1.00;95.40;;;;;;5067201;28;20192;-75
2023/04/04 02:39:31;;;;;;;1.90;0.80;;;-1.00;95.20;;;;;;5083408;28;20188;-75
2023/04/04 02:41:56;;;;;;;1.73;1.20;;;-1.10;95.20;;;;;;5067438;28;20692;-77
2023/04/04 02:44:22;;;;;;;1.20;0.73;;;-1.10;95.30;;;;;;5068803;28;20185;-74
2023/04/04 02:46:48;;;;;;;2.00;1.03;;;-1.10;95.30;;;;;;5067992;28;20310;-74
2023/04/04 02:49:14;;;;;;;1.93;1.00;;;-1.10;95.70;;;;;;5068014;28;20188;-74
2023/04/04 02:51:39;;;;;;;3.27;1.63;;;-1.10;95.60;;;;;;5068399;28;20211;-75
2023/04/04 02:54:05;;;;;;;1.60;0.93;;;-1.10;95.70;;;;;;5067349;28;20420;-75
2023/04/04 02:56:31;;;;;;;4.50;1.43;;;-1.10;95.50;;;;;;5067667;28;20185;-72
2023/04/04 02:58:58;;;;;;;1.83;1.13;;;-1.10;95.70;;;;;;5068415;28;20415;-77
2023/04/04 03:01:23;;;;;;;2.23;0.97;;;-1.20;95.40;;;;;;5066856;28;20205;-76
2023/04/04 03:03:49;;;;;;;6.07;1.57;;;-1.20;95.50;;;;;;5066886;28;20423;-74
2023/04/04 03:06:15;;;;;;;4.20;1.40;;;-1.20;95.50;;;;;;5066810;28;20181;-74
2023/04/04 03:08:41;;;;;;;1.70;0.97;;;-1.20;95.80;;;;;;5066924;28;20201;-74
2023/04/04 03:11:06;;;;;;;4.77;1.60;;;-1.20;95.50;;;;;;5082659;28;20239;-74
2023/04/04 03:13:32;;;;;;;3.13;1.47;;;-1.30;96.00;;;;;;5066907;28;20474;-73
2023/04/04 03:16:05;;;;;;;9.53;1.57;;;-1.30;95.80;;;;;;5067622;28;21010;-73
2023/04/04 03:18:32;;;;;;;1.80;1.13;;;-1.30;95.60;;;;;;5066413;28;20955;-73
2023/04/04 03:20:57;;;;;;;2.73;1.53;;;-1.30;96.00;;;;;;5067091;28;20481;-73
2023/04/04 03:23:23;;;;;;;3.90;1.90;;;-1.30;95.70;;;;;;5065686;28;20431;-73
2023/04/04 03:25:49;;;;;;;3.17;1.13;;;-1.30;96.10;;;;;;5082959;28;20216;-77
2023/04/04 03:28:15;;;;;;;3.87;1.00;;;-1.30;96.30;;;;;;5066714;28;20224;-73
2023/04/04 03:30:40;;;;;;;5.13;1.67;;;-1.40;96.00;;;;;;5067452;28;20578;-74
2023/04/04 03:33:08;;;;;;;2.50;1.20;;;-1.50;96.10;;;;;;5070180;28;20200;-73
2023/04/04 03:35:38;;;;;;;3.00;1.00;;;-1.50;96.30;;;;;;5070901;28;20987;-74
2023/04/04 03:38:04;;;;;;;1.50;1.00;;;-1.50;95.90;;;;;;5085637;28;20435;-77
2023/04/04 03:40:30;;;;;;;3.43;1.60;;;-1.50;96.20;;;;;;5070722;28;20514;-73
2023/04/04 03:42:55;;;;;;;6.30;1.30;;;-1.50;96.30;;;;;;5069622;28;20469;-73
2023/04/04 03:45:21;;;;;;;2.13;1.00;;;-1.50;96.20;;;;;;5066229;28;20778;-72
2023/04/04 03:47:47;;;;;;;2.10;1.20;;;-1.50;96.40;;;;;;5069592;28;20192;-73
2023/04/04 03:50:12;;;;;;;8.13;1.53;;;-1.60;96.30;;;;;;5086622;28;20202;-77
2023/04/04 03:52:41;;;;;;;8.60;1.10;;;-1.60;96.20;;;;;;5069795;28;20205;-73
2023/04/04 03:55:07;;;;;;;3.50;0.80;;;-1.60;96.60;;;;;;5070161;28;20284;-73
2023/04/04 03:57:33;;;;;;;3.00;1.23;;;-1.60;96.10;;;;;;5068176;28;20892;-76
2023/04/04 03:59:59;;;;;;;2.73;1.20;;;-1.60;96.20;;;;;;5069177;28;20461;-73
2023/04/04 04:02:25;;;;;;;3.00;1.20;;;-1.60;96.20;;;;;;5069941;28;20446;-73
2023/04/04 04:04:50;;;;;;;6.60;1.53;;;-1.70;96.20;;;;;;5086335;28;20185;-73
2023/04/04 04:07:16;;;;;;;2.30;1.47;;;-1.60;96.40;;;;;;5070671;28;20185;-77
2023/04/04 04:09:41;;;;;;;3.77;1.63;;;-1.60;96.50;;;;;;5070409;28;20208;-72
2023/04/04 04:12:07;;;;;;;2.27;1.20;;;-1.80;96.50;;;;;;5069793;28;20205;-74
2023/04/04 04:14:33;;;;;;;5.90;2.07;;;-1.60;96.40;;;;;;5070893;28;20185;-74
2023/04/04 04:16:58;;;;;;;3.87;1.47;;;-1.60;96.30;;;;;;5069871;28;20674;-76
2023/04/04 04:19:24;;;;;;;4.23;1.30;;;-1.60;96.70;;;;;;5069386;28;20238;-73
2023/04/04 04:21:49;;;;;;;3.00;1.40;;;-1.60;96.30;;;;;;5070343;28;20197;-73
2023/04/04 04:24:15;;;;;;;4.73;1.73;;;-1.60;96.70;;;;;;5067979;28;20181;-73
2023/04/04 04:26:41;;;;;;;2.43;1.40;;;-1.60;96.60;;;;;;5069924;28;20291;-74
2023/04/04 04:29:06;;;;;;;2.80;1.43;;;-1.60;96.70;;;;;;5070493;28;20184;-74
2023/04/04 04:31:32;;;;;;;6.30;1.37;;;-1.60;96.60;;;;;;5069215;28;20755;-73
2023/04/04 04:33:58;;;;;;;5.70;1.37;;;-1.70;96.60;;;;;;5069836;28;20180;-73
2023/04/04 04:36:24;;;;;;;5.20;1.73;;;-1.70;96.70;;;;;;5071451;28;20218;-74
2023/04/04 04:38:49;;;;;;;4.30;1.80;;;-1.70;96.70;;;;;;5069712;28;20306;-73
2023/04/04 04:41:15;;;;;;;2.63;1.53;;;-1.70;97.10;;;;;;5085085;28;20208;-74
2023/04/04 04:43:41;;;;;;;3.00;1.20;;;-1.70;97.20;;;;;;5066770;28;20626;-74
2023/04/04 04:46:09;;;;;;;1.87;1.27;;;-1.70;97.10;;;;;;5068657;28;20185;-76
2023/04/04 04:48:35;;;;;;;3.30;1.40;;;-1.70;97.20;;;;;;5069549;28;20264;-74
2023/04/04 04:51:01;;;;;;;5.87;2.27;;;-1.80;97.30;;;;;;5068721;28;21074;-74
2023/04/04 04:53:26;;;;;;;4.00;1.80;;;-1.80;97.20;;;;;;5068132;28;20178;-75
2023/04/04 04:55:52;;;;;;;2.80;1.30;;;-1.90;97.40;;;;;;5067991;28;20191;-75
2023/04/04 04:58:21;;;;;;;1.87;1.20;;;-1.90;97.50;;;;;;5070596;28;20177;-74
2023/04/04 05:00:47;;;;;;;3.33;1.50;;;-1.90;97.50;;;;;;5067310;28;20185;-73
2023/04/04 05:03:12;;;;;;;2.97;2.03;;;-1.90;97.60;;;;;;5068797;28;20530;-77
2023/04/04 05:05:38;;;;;;;4.87;1.30;;;-1.90;97.90;;;;;;5086183;28;20181;-75
2023/04/04 05:08:04;;;;;;;3.90;1.30;;;-1.80;97.70;;;;;;5070305;28;20271;-74
2023/04/04 05:10:30;;;;;;;3.70;1.60;;;-1.80;97.50;;;;;;5068423;28;20636;-74
2023/04/04 05:12:56;;;;;;;5.53;1.87;;;-1.80;97.90;;;;;;5066759;28;20463;-74
2023/04/04 05:15:22;;;;;;;3.23;1.90;;;-1.80;97.80;;;;;;5068243;28;21008;-73
2023/04/04 05:17:47;;;;;;;3.60;1.60;;;-1.80;97.80;;;;;;5068924;28;20427;-74
2023/04/04 05:20:13;;;;;;;2.47;1.50;;;-1.80;97.70;;;;;;5069036;28;20188;-75
2023/04/04 05:22:43;;;;;;;4.80;1.80;;;-1.90;97.70;;;;;;5069051;28;20216;-73
2023/04/04 05:25:09;;;;;;;1.83;1.17;;;-1.80;98.10;;;;;;5066821;28;20660;-75
2023/04/04 05:27:35;;;;;;;2.43;1.27;;;-1.90;97.90;;;;;;5069038;28;21062;-74
2023/04/04 05:30:01;;;;;;;2.33;1.40;;;-1.80;98.00;;;;;;5069085;28;20462;-73
2023/04/04 05:32:27;;;;;;;3.20;1.60;;;-1.90;98.30;;;;;;5068579;28;20660;-73
2023/04/04 05:34:52;;;;;;;3.60;1.30;;;-1.80;98.00;;;;;;5068472;28;20173;-73
2023/04/04 05:37:18;;;;;;;4.20;2.00;;;-1.80;98.00;;;;;;5069019;28;20195;-76
2023/04/04 05:39:43;;;;;;;2.53;1.47;;;-1.80;98.00;;;;;;5068963;28;20185;-75
2023/04/04 05:42:09;;;;;;;3.77;1.80;;;-1.70;98.40;;;;;;5067518;28;20201;-73
2023/04/04 05:44:36;;;;;;;5.03;1.97;;;-1.70;97.80;;;;;;5067380;28;20185;-74
2023/04/04 05:47:02;;;;;;;2.10;1.40;;;-1.60;98.00;;;;;;5068651;28;20250;-72
2023/04/04 05:49:27;;;;;;;3.10;1.77;;;-1.70;98.10;;;;;;5068389;28;20427;-73
2023/04/04 05:51:55;;;;;;;3.27;2.27;;;-1.60;98.20;;;;;;5068417;28;20439;-73
2023/04/04 05:54:22;;;;;;;5.53;2.83;;;-1.70;97.90;;;;;;5068013;28;20196;-73
2023/04/04 05:56:48;;;;;;;5.37;2.50;;;-1.60;97.90;;;;;;5067946;28;20837;-72
2023/04/04 05:59:13;;;;;;;4.40;2.40;;;-1.70;97.70;;;;;;5068576;28;20188;-73
2023/04/04 06:01:39;;;;;;;8.83;0.90;;;-1.60;97.90;;;;;;5068241;28;20595;-73
2023/04/04 06:04:05;;;;;;;3.27;1.10;;;-1.60;97.50;;;;;;5068121;28;20177;-72
2023/04/04 06:06:32;;;;;;;2.80;1.60;;;-1.50;97.00;;;;;;5069025;28;20185;-72
2023/04/04 06:08:57;;;;;;;3.00;1.50;;;-1.50;96.90;;;;;;5068056;28;20411;-73
2023/04/04 06:11:23;;;;;;;5.10;1.40;;;-1.40;96.90;;;;;;5068884;28;20459;-73
2023/04/04 06:13:50;;;;;;;2.33;1.30;;;-1.30;96.70;;;;;;5067430;28;20193;-75
2023/04/04 06:16:16;;;;;;;6.47;1.97;;;-1.30;96.50;;;;;;5070210;28;20173;-75
2023/04/04 06:18:41;;;;;;;2.00;1.10;;;-1.10;96.30;;;;;;5076750;28;20511;-76
2023/04/04 06:21:07;;;;;;;10.20;1.40;;;-1.10;96.20;;;;;;5073840;28;20415;-75
2023/04/04 06:23:33;;;;;;;9.83;1.87;;;-1.00;96.30;;;;;;5068228;28;20189;-74
2023/04/04 06:25:59;;;;;;;2.97;1.73;;;-0.90;96.20;;;;;;5069281;28;20213;-74
2023/04/04 06:28:24;;;;;;;3.77;1.63;;;-0.90;96.00;;;;;;5069104;28;20256;-74
2023/04/04 06:30:50;;;;;;;3.40;1.57;;;-0.80;95.70;;;;;;5069830;28;20224;-77
2023/04/04 06:33:16;;;;;;;5.20;2.00;;;-0.80;95.20;;;;;;5069770;28;20208;-72
2023/04/04 06:35:43;;;;;;;2.43;1.53;;;-0.70;95.30;;;;;;5070070;28;20185;-73
2023/04/04 06:38:08;;;;;;;3.00;1.47;;;-0.60;95.20;;;;;;5074218;28;20563;-72
2023/04/04 06:40:34;;;;;;;1.60;0.93;;;-0.60;95.20;;;;;;5075890;28;20431;-72
2023/04/04 06:43:00;;;;;;;2.30;1.27;;;-0.50;94.50;;;;;;5088010;28;20217;-79
2023/04/04 06:45:27;;;;;;;3.20;1.53;;;-0.40;94.50;;;;;;5098986;28;20251;-79
2023/04/04 06:47:55;;;;;;;2.20;1.23;;;-0.30;94.50;;;;;;5098486;28;20414;-79
2023/04/04 06:50:21;;;;;;;3.43;1.33;;;-0.20;94.10;;;;;;5098352;28;20461;-79
2023/04/04 06:52:48;;;;;;;2.80;1.10;;;-0.10;94.00;;;;;;5097258;28;20462;-73
2023/04/04 06:55:14;;;;;;;1.40;0.93;;;0.10;93.70;;;;;;5084420;28;20434;-68
2023/04/04 06:57:40;;;;;;;4.70;1.63;;;0.30;93.10;;;;;;5072674;28;20419;-73
2023/04/04 07:00:06;;;;;;;1.67;0.90;;;0.30;92.80;;;;;;5070083;28;20426;-74
2023/04/04 07:02:32;;;;;;;5.90;1.17;;;0.40;92.90;;;;;;5067500;28;20606;-73
2023/04/04 07:04:58;;;;;;;2.67;1.37;;;0.50;92.80;;;;;;5069819;28;20489;-74
2023/04/04 07:07:23;;;;;;;3.10;1.50;;;0.60;92.40;;;;;;5075786;28;20185;-72
2023/04/04 07:09:49;;;;;;;3.37;1.23;;;0.80;92.00;;;;;;5092912;28;20196;-74
2023/04/04 07:12:15;;;;;;;2.30;1.37;;;0.80;92.10;;;;;;5078056;28;20672;-74
2023/04/04 07:14:41;;;;;;;2.30;1.47;;;1.10;91.60;;;;;;5084918;28;20253;-76
2023/04/04 07:17:07;;;;;;;1.50;0.90;;;1.50;90.30;;;;;;5098297;28;20295;-76
2023/04/04 07:19:33;;;;;;;2.17;1.10;;;1.60;90.60;;;;;;5102824;28;20403;-79
2023/04/04 07:21:58;;;;;;;1.70;1.03;;;2.00;89.80;;;;;;5103542;28;20495;-79
2023/04/04 07:24:24;;;;;;;7.80;1.40;;;2.40;89.10;;;;;;5120529;28;20173;-78
2023/04/04 07:26:50;;;;;;;3.07;1.03;;;2.50;87.90;;;;;;5099851;28;20199;-72
2023/04/04 07:29:15;;;;;;;5.70;0.90;;;3.50;86.60;;;;;;5086531;28;20200;-73
2023/04/04 07:31:41;;;;;;;3.93;1.40;;;4.40;82.50;;;;;;5074758;28;20981;-72
2023/04/04 07:34:07;;;;;;;7.73;1.43;;;5.40;77.70;;;;;;5071575;28;20264;-73
2023/04/04 07:36:32;;;;;;;5.23;1.70;;;6.10;73.60;;;;;;5072797;28;20661;-73
2023/04/04 07:38:58;;;;;;;3.53;1.07;;;5.60;74.60;;;;;;5073289;28;20222;-73
2023/04/04 07:41:24;;;;;;;3.40;1.07;;;5.70;74.80;;;;;;5072322;28;20209;-74
2023/04/04 07:43:50;;;;;;;3.33;1.70;;;6.10;74.10;;;;;;5072809;28;20189;-74
2023/04/04 07:46:16;;;;;;;2.80;1.27;;;7.00;72.00;;;;;;5072553;28;20526;-73
2023/04/04 07:48:42;;;;;;;1.40;0.90;;;7.40;70.00;;;;;;5073651;28;20423;-73
2023/04/04 07:51:08;;;;;;;2.50;1.23;;;8.00;67.30;;;;;;5072945;28;20814;-74
2023/04/04 07:53:34;;;;;;;3.60;1.20;;;7.90;66.40;;;;;;5072344;28;20613;-75
2023/04/04 07:56:05;;;;;;;8.23;1.50;;;7.80;65.50;;;;;;5088670;28;20177;-76
2023/04/04 07:58:33;;;;;;;4.20;1.23;;;7.40;66.30;;;;;;5094016;28;20192;-76
2023/04/04 08:01:02;;;;;;;3.60;1.57;;;7.80;65.50;;;;;;5088969;28;20421;-74
2023/04/04 08:03:28;;;;;;;2.87;1.40;;;7.80;65.50;;;;;;5077213;28;20415;-75
2023/04/04 08:05:54;;;;;;;2.10;1.13;;;7.80;65.00;;;;;;5075148;28;20416;-74
2023/04/04 08:08:20;;;;;;;4.00;1.30;;;7.30;65.90;;;;;;5073442;28;20407;-75
2023/04/04 08:10:46;;;;;;;2.40;1.13;;;7.50;66.60;;;;;;5072549;28;20208;-75
2023/04/04 08:13:12;;;;;;;4.37;1.60;;;8.20;65.00;;;;;;5072607;28;20304;-74
2023/04/04 08:15:38;;;;;;;2.30;1.33;;;8.70;64.90;;;;;;5071989;28;20224;-75
2023/04/04 08:18:04;;;;;;;7.07;1.10;;;9.10;61.50;;;;;;5069246;28;20455;-75
2023/04/04 08:20:30;;;;;;;2.67;1.10;;;9.10;63.40;;;;;;5086133;28;20471;-75
2023/04/04 08:22:56;;;;;;;3.00;1.20;;;9.00;61.80;;;;;;5085437;28;20206;-75
2023/04/04 08:25:22;;;;;;;2.90;1.40;;;9.20;62.60;;;;;;5069954;28;20201;-75
2023/04/04 08:27:47;;;;;;;2.67;1.33;;;8.30;62.20;;;;;;5069100;28;20556;-76
2023/04/04 08:30:14;;;;;;;3.27;1.60;;;9.20;61.80;;;;;;5068897;28;20254;-75
2023/04/04 08:32:41;;;;;;;3.57;1.43;;;9.30;62.30;;;;;;5067835;28;20208;-75
2023/04/04 08:35:07;;;;;;;3.73;1.10;;;9.10;61.30;;;;;;5070231;28;20469;-74
2023/04/04 08:37:34;;;;;;;2.10;1.17;;;9.40;60.70;;;;;;5070330;28;20838;-74
2023/04/04 08:40:01;;;;;;;2.10;1.03;;;9.40;61.80;;;;;;5067966;28;20409;-74
2023/04/04 08:42:29;;;;;;;4.23;1.30;;;8.80;60.50;;;;;;5069327;28;20969;-75
2023/04/04 08:44:58;;;;;;;2.80;1.17;;;8.70;61.00;;;;;;5068898;28;20419;-74
2023/04/04 08:47:25;;;;;;;4.47;1.93;;;9.00;61.80;;;;;;5068245;28;20415;-77
2023/04/04 08:49:53;;;;;;;4.03;1.50;;;9.00;60.60;;;;;;5067781;28;20534;-75
2023/04/04 08:52:21;;;;;;;3.93;1.30;;;8.90;60.50;;;;;;5069615;28;21352;-75
2023/04/04 08:54:49;;;;;;;2.90;1.30;;;8.60;61.70;;;;;;5069766;28;20416;-75
2023/04/04 08:57:14;;;;;;;2.37;1.00;;;8.90;60.40;;;;;;5066748;28;20420;-75
2023/04/04 08:59:40;;;;;;;3.70;1.60;;;8.70;59.40;;;;;;5069508;28;20420;-74
2023/04/04 09:02:08;;;;;;;2.60;1.63;;;8.50;62.30;;;;;;5068651;28;20193;-74
2023/04/04 09:04:34;;;;;;;3.93;1.67;;;8.80;60.60;;;;;;5069557;28;20184;-72
2023/04/04 09:07:02;;;;;;;3.80;1.60;;;9.10;60.30;;;;;;5069092;28;20510;-74
2023/04/04 09:09:30;;;;;;;3.50;1.50;;;9.20;59.50;;;;;;5068800;28;20169;-75
2023/04/04 09:11:56;;;;;;;2.57;1.17;;;8.90;62.40;;;;;;5063863;28;20473;-73
2023/04/04 09:14:23;;;;;;;9.23;1.20;;;8.40;61.10;;;;;;5067635;28;20797;-75
2023/04/04 09:16:49;;;;;;;2.13;1.00;;;8.30;60.90;;;;;;5081748;28;20189;-74
2023/04/04 09:19:15;;;;;;;3.00;1.40;;;7.70;63.00;;;;;;5064532;28;20419;-74
2023/04/04 09:21:49;;;;;;;3.43;1.70;;;8.30;63.10;;;;;;5066445;28;20196;-73
2023/04/04 09:24:15;;;;;;;3.93;1.40;;;7.90;64.40;;;;;;5066577;28;20427;-74
2023/04/04 09:26:51;;;;;;;3.20;1.40;;;8.00;61.30;;;;;;5066526;28;20428;-74
2023/04/04 09:29:20;;;;;;;10.20;1.43;;;7.60;60.80;;;;;;5067188;28;20411;-74
2023/04/04 09:31:48;;;;;;;3.30;1.67;;;7.00;61.50;;;;;;5065532;28;20464;-76
2023/04/04 09:34:16;;;;;;;3.30;1.63;;;7.50;62.50;;;;;;5068080;28;20415;-74
2023/04/04 09:36:43;;;;;;;12.77;1.83;;;7.60;61.10;;;;;;5079119;28;20403;-77
2023/04/04 09:39:09;;;;;;;2.33;1.17;;;7.60;60.80;;;;;;5079470;28;20477;-76
2023/04/04 09:41:40;;;;;;;6.90;1.50;;;7.60;60.90;;;;;;5067986;28;20789;-78
2023/04/04 09:44:09;;;;;;;3.93;2.00;;;7.60;63.40;;;;;;5083076;28;21167;-74
2023/04/04 09:46:35;;;;;;;2.20;1.30;;;7.70;61.70;;;;;;5065135;28;20447;-74
2023/04/04 09:49:01;;;;;;;1.70;1.00;;;7.50;61.20;;;;;;5066806;28;20423;-75
2023/04/04 09:51:43;;;;;;;6.50;1.80;;;6.70;63.90;;;;;;5082886;28;20470;-76
2023/04/04 09:54:09;;;;;;;2.00;1.13;;;6.80;64.60;;;;;;5066352;28;20161;-75
2023/04/04 09:56:39;;;;;;;3.67;1.97;;;6.60;66.00;;;;;;5065092;28;20421;-75
2023/04/04 09:59:06;;;;;;;4.90;1.77;;;6.30;65.70;;;;;;5068929;28;20411;-75
2023/04/04 10:01:32;;;;;;;2.50;1.00;;;6.30;64.50;;;;;;5066092;28;20439;-74
2023/04/04 10:03:58;;;;;;;6.30;2.23;;;6.30;65.60;;;;;;5064776;28;20415;-74
2023/04/04 10:06:24;;;;;;;3.50;1.20;;;6.50;66.20;;;;;;5066064;28;20547;-74
2023/04/04 10:08:50;;;;;;;4.70;1.47;;;6.70;65.10;;;;;;5066644;28;20172;-75
2023/04/04 10:11:33;;;;;;;3.00;1.20;;;6.40;64.50;;;;;;5064959;28;20455;-74
2023/04/04 10:13:59;;;;;;;2.90;1.37;;;6.30;66.20;;;;;;5064747;28;20416;-74
2023/04/04 10:16:25;;;;;;;2.37;0.97;;;6.20;66.30;;;;;;5065059;28;20424;-74
2023/04/04 10:18:55;;;;;;;2.47;1.50;;;6.20;67.50;;;;;;5065512;28;20432;-74
2023/04/04 10:21:21;;;;;;;3.37;1.67;;;6.10;65.50;;;;;;5067730;28;20709;-72
2023/04/04 10:23:48;;;;;;;2.33;1.37;;;6.20;64.90;;;;;;5066299;28;20432;-74
2023/04/04 10:26:14;;;;;;;3.17;1.30;;;6.30;67.90;;;;;;5068460;28;20518;-74
2023/04/04 10:28:41;;;;;;;6.33;1.30;;;6.10;66.60;;;;;;5083079;28;20503;-74
2023/04/04 10:31:09;;;;;;;2.10;1.10;;;6.00;67.50;;;;;;5083622;28;20236;-76
2023/04/04 10:34:00;;;;;;;1.97;1.17;;;6.00;66.70;;;;;;5067646;28;20980;-75
2023/04/04 10:36:35;;;;;;;9.80;2.20;;;6.20;66.80;;;;;;5066649;28;20520;-74
2023/04/04 10:39:08;;;;;;;3.50;1.63;;;6.40;67.40;;;;;;5067439;28;20441;-74
2023/04/04 10:41:35;;;;;;;2.33;1.60;;;6.50;66.50;;;;;;5067425;28;21014;-74
2023/04/04 10:44:09;;;;;;;2.50;1.53;;;6.40;66.90;;;;;;5068381;28;20454;-74
2023/04/04 10:46:38;;;;;;;5.87;1.60;;;6.00;68.20;;;;;;5067683;28;20464;-76
2023/04/04 10:49:04;;;;;;;4.20;1.43;;;6.20;67.20;;;;;;5083995;28;20954;-74
2023/04/04 10:51:30;;;;;;;5.30;2.40;;;6.40;67.30;;;;;;5067066;28;20467;-73
2023/04/04 10:53:57;;;;;;;2.47;1.53;;;6.40;63.30;;;;;;5067853;28;20446;-75
2023/04/04 10:56:23;;;;;;;6.00;1.63;;;6.40;64.90;;;;;;5065761;28;20415;-73
2023/04/04 10:58:49;;;;;;;2.70;1.30;;;6.50;65.90;;;;;;5084433;28;20427;-75
2023/04/04 11:01:19;;;;;;;2.40;1.30;;;6.70;64.70;;;;;;5066241;28;20881;-73
2023/04/04 11:04:21;;;;;;;1.90;1.17;;;6.70;65.70;;;;;;5065632;28;20425;-73
2023/04/04 11:07:15;;;;;;;4.70;1.47;;;6.60;66.50;;;;;;5067483;28;20437;-73
2023/04/04 11:09:47;;;;;;;4.80;1.80;;;6.80;65.60;;;;;;5067307;28;20411;-70
2023/04/04 11:12:19;;;;;;;3.73;1.73;;;6.60;62.70;;;;;;5082589;28;20434;-73
2023/04/04 11:15:17;;;;;;;3.30;1.60;;;6.50;63.90;;;;;;5068555;28;20453;-75
2023/04/04 11:18:06;;;;;;;3.23;1.50;;;6.70;66.60;;;;;;5064325;28;20431;-76
2023/04/04 11:20:34;;;;;;;1.60;1.00;;;6.70;63.30;;;;;;5066091;28;20428;-74
2023/04/04 11:23:13;;;;;;;2.53;1.23;;;6.50;64.50;;;;;;5073857;28;20443;-74
2023/04/04 11:25:40;;;;;;;4.53;1.60;;;6.60;63.70;;;;;;5110022;28;20415;-79
2023/04/04 11:28:13;;;;;;;3.63;1.90;;;6.60;63.40;;;;;;5094478;28;20524;-80
2023/04/04 11:30:47;;;;;;;3.83;1.50;;;6.50;64.50;;;;;;5095201;28;20550;-80
2023/04/04 11:33:24;;;;;;;4.13;1.50;;;6.70;64.10;;;;;;5110567;28;20522;-77
2023/04/04 11:35:50;;;;;;;3.10;1.30;;;6.70;63.20;;;;;;5093387;28;20434;-79
2023/04/04 11:38:16;;;;;;;5.77;1.47;;;6.90;64.10;;;;;;5071678;28;20788;-73
2023/04/04 11:40:51;;;;;;;2.70;1.50;;;7.10;64.70;;;;;;5075717;28;20178;-73
2023/04/04 11:43:19;;;;;;;3.10;1.50;;;7.20;66.60;;;;;;5077097;28;20417;-74
2023/04/04 11:45:45;;;;;;;3.67;1.43;;;7.50;66.70;;;;;;5082100;28;20419;-75
2023/04/04 11:48:13;;;;;;;3.70;1.60;;;7.40;64.70;;;;;;5082431;28;20452;-74
2023/04/04 11:50:40;;;;;;;4.60;1.53;;;7.20;67.60;;;;;;5081329;28;20462;-72
2023/04/04 11:53:07;;;;;;;2.43;1.37;;;7.30;66.50;;;;;;5076293;28;20960;-74
2023/04/04 11:55:37;;;;;;;3.13;1.10;;;7.40;65.10;;;;;;5073716;28;20818;-74
2023/04/04 11:58:11;;;;;;;3.63;1.57;;;7.80;66.40;;;;;;5074734;28;20465;-75
2023/04/04 12:00:38;;;;;;;3.80;1.50;;;7.70;64.60;;;;;;5071745;28;20499;-75
2023/04/04 12:03:05;;;;;;;5.97;1.53;;;8.10;64.40;;;;;;5070675;28;20966;-75
2023/04/04 12:05:32;;;;;;;9.67;1.90;;;8.30;61.40;;;;;;5072643;28;20497;-74
2023/04/04 12:08:01;;;;;;;3.00;1.70;;;8.20;61.50;;;;;;5087028;28;20874;-74
2023/04/04 12:10:30;;;;;;;3.10;1.47;;;8.10;62.30;;;;;;5070927;28;20512;-74
2023/04/04 12:12:57;;;;;;;2.90;1.20;;;7.90;63.70;;;;;;5070010;28;20807;-75
2023/04/04 12:15:23;;;;;;;4.27;1.73;;;8.10;67.20;;;;;;5070113;28;20451;-74
2023/04/04 12:17:50;;;;;;;4.50;1.77;;;8.40;63.50;;;;;;5070661;28;20459;-75
2023/04/04 12:20:16;;;;;;;3.27;1.23;;;8.20;63.30;;;;;;5070047;28;20876;-74
2023/04/04 12:22:42;;;;;;;5.33;1.90;;;8.10;66.70;;;;;;5069709;28;20505;-74
2023/04/04 12:25:08;;;;;;;3.80;1.77;;;8.10;64.40;;;;;;5070201;28;20902;-74
2023/04/04 12:27:35;;;;;;;3.40;1.67;;;8.50;64.60;;;;;;5070274;28;20185;-71
2023/04/04 12:30:03;;;;;;;4.33;1.50;;;8.30;63.10;;;;;;5069417;28;20466;-75
2023/04/04 12:32:29;;;;;;;6.03;1.53;;;8.40;64.30;;;;;;5069992;28;20541;-74
2023/04/04 12:35:00;;;;;;;3.43;1.60;;;8.60;62.50;;;;;;5070595;28;20420;-75
2023/04/04 12:37:28;;;;;;;5.80;2.07;;;8.50;60.60;;;;;;5071131;28;20911;-75
2023/04/04 12:39:55;;;;;;;4.37;1.77;;;8.30;60.50;;;;;;5069665;28;21034;-74
2023/04/04 12:42:22;;;;;;;1.60;1.23;;;8.30;63.20;;;;;;5070711;28;20858;-74
2023/04/04 12:44:51;;;;;;;4.13;1.47;;;8.30;63.00;;;;;;5072297;28;20423;-74
2023/04/04 12:47:19;;;;;;;2.30;1.30;;;8.40;61.80;;;;;;5073000;28;20438;-76
2023/04/04 12:49:49;;;;;;;3.90;1.30;;;8.50;62.10;;;;;;5073518;28;20443;-74
2023/04/04 12:52:18;;;;;;;3.30;1.73;;;8.30;61.80;;;;;;5088782;28;20451;-73